createdAt,value
2019-05-25T00:01:04.480Z,21.73
2019-05-25T00:03:33.620Z,20.13
2019-05-25T00:06:02.717Z,20.93
2019-05-25T00:08:31.591Z,21.87
2019-05-25T00:11:00.419Z,20.97
2019-05-25T00:13:29.355Z,21.83
2019-05-25T00:15:58.180Z,21.30
2019-05-25T00:18:27.243Z,22.23
2019-05-25T00:20:56.034Z,21.20
2019-05-25T00:23:25.702Z,21.13
2019-05-25T00:25:54.568Z,21.77
2019-05-25T00:28:23.469Z,22.07
2019-05-25T00:30:52.388Z,20.60
2019-05-25T00:33:21.199Z,20.33
2019-05-25T00:35:50.012Z,21.27
2019-05-25T00:38:19.269Z,21.53
2019-05-25T00:40:48.069Z,19.70
2019-05-25T00:43:16.859Z,20.43
2019-05-25T00:45:45.749Z,19.53
2019-05-25T00:48:14.548Z,18.97
2019-05-25T00:50:43.576Z,18.43
2019-05-25T00:53:12.438Z,17.87
2019-05-25T00:55:41.244Z,18.73
2019-05-25T00:58:10.230Z,17.10
2019-05-25T01:00:39.361Z,17.50
2019-05-25T01:03:08.176Z,15.60
2019-05-25T01:05:37.156Z,17.37
2019-05-25T01:08:06.108Z,17.67
2019-05-25T01:10:35.734Z,15.83
2019-05-25T01:13:04.942Z,15.47
2019-05-25T01:15:34.023Z,15.97
2019-05-25T01:18:07.712Z,15.17
2019-05-25T01:20:36.697Z,14.00
2019-05-25T01:23:05.710Z,15.37
2019-05-25T01:25:35.156Z,14.30
2019-05-25T01:28:04.621Z,13.30
2019-05-25T01:30:33.405Z,13.87
2019-05-25T01:33:02.355Z,12.37
2019-05-25T01:35:31.320Z,11.57
2019-05-25T01:38:00.189Z,12.50
2019-05-25T01:40:29.017Z,12.70
2019-05-25T01:42:57.904Z,11.73
2019-05-25T01:45:26.803Z,11.40
2019-05-25T01:47:56.255Z,10.80
2019-05-25T01:50:26.775Z,11.30
2019-05-25T01:53:14.838Z,10.63
2019-05-25T01:55:44.002Z,10.17
2019-05-25T01:58:12.889Z,10.63
2019-05-25T02:00:41.884Z,10.43
2019-05-25T02:03:10.856Z,9.63
2019-05-25T02:05:40.187Z,9.63
2019-05-25T02:08:09.325Z,9.50
2019-05-25T02:10:38.197Z,9.37
2019-05-25T02:13:07.206Z,9.03
2019-05-25T02:15:36.091Z,9.73
2019-05-25T02:18:05.097Z,8.70
2019-05-25T02:20:33.943Z,8.67
2019-05-25T02:23:02.726Z,8.27
2019-05-25T02:25:31.515Z,9.57
2019-05-25T02:28:00.419Z,8.30
2019-05-25T02:30:29.214Z,8.40
2019-05-25T02:32:58.034Z,7.70
2019-05-25T02:35:27.809Z,8.07
2019-05-25T02:37:57.449Z,7.57
2019-05-25T02:40:45.534Z,8.87
2019-05-25T02:43:14.357Z,6.80
2019-05-25T02:45:43.138Z,8.90
2019-05-25T02:48:13.939Z,6.57
2019-05-25T02:50:42.924Z,6.27
2019-05-25T02:53:11.717Z,7.80
2019-05-25T02:55:40.536Z,6.07
2019-05-25T02:58:09.316Z,5.17
2019-05-25T03:00:38.167Z,5.80
2019-05-25T03:03:06.981Z,6.53
2019-05-25T03:05:35.892Z,5.17
2019-05-25T03:08:05.932Z,5.60
2019-05-25T03:10:34.794Z,5.97
2019-05-25T03:13:04.135Z,5.17
2019-05-25T03:15:32.927Z,5.03
2019-05-25T03:18:02.024Z,4.97
2019-05-25T03:20:31.005Z,5.00
2019-05-25T03:22:59.813Z,5.20
2019-05-25T03:25:28.671Z,4.80
2019-05-25T03:27:57.464Z,5.40
2019-05-25T03:30:33.989Z,5.10
2019-05-25T03:33:03.125Z,5.03
2019-05-25T03:35:34.281Z,5.33
2019-05-25T03:38:03.276Z,4.27
2019-05-25T03:40:32.065Z,4.40
2019-05-25T03:43:00.964Z,4.23
2019-05-25T03:45:30.512Z,4.63
2019-05-25T03:47:59.336Z,5.90
2019-05-25T03:50:30.504Z,4.87
2019-05-25T03:52:59.328Z,4.43
2019-05-25T03:55:28.379Z,5.17
2019-05-25T03:57:57.508Z,4.30
2019-05-25T04:00:36.482Z,5.03
2019-05-25T04:03:05.786Z,4.00
2019-05-25T04:05:34.794Z,4.57
2019-05-25T04:08:03.718Z,5.03
2019-05-25T04:10:32.552Z,4.00
2019-05-25T04:13:01.355Z,3.90
2019-05-25T04:15:30.241Z,4.53
2019-05-25T04:17:59.085Z,4.37
2019-05-25T04:20:27.939Z,4.83
2019-05-25T04:22:56.704Z,4.37
2019-05-25T04:25:25.525Z,4.30
2019-05-25T04:27:54.317Z,4.77
2019-05-25T04:30:23.823Z,3.90
2019-05-25T04:32:53.239Z,5.00
2019-05-25T04:35:22.183Z,4.67
2019-05-25T04:37:52.185Z,3.27
2019-05-25T04:40:22.964Z,2.80
2019-05-25T04:42:51.638Z,3.50
2019-05-25T04:45:20.473Z,3.57
2019-05-25T04:47:49.350Z,3.83
2019-05-25T04:50:18.190Z,2.73
2019-05-25T04:52:47.038Z,4.00
2019-05-25T04:55:15.845Z,4.07
2019-05-25T04:57:44.967Z,3.00
2019-05-25T05:00:15.356Z,5.30
2019-05-25T05:02:44.896Z,4.17
2019-05-25T05:05:14.086Z,3.30
2019-05-25T05:07:42.935Z,2.83
2019-05-25T05:10:11.768Z,3.50
2019-05-25T05:12:40.535Z,3.63
2019-05-25T05:15:09.311Z,3.33
2019-05-25T05:17:38.205Z,2.80
2019-05-25T05:20:07.636Z,3.47
2019-05-25T05:22:36.757Z,2.80
2019-05-25T05:25:06.547Z,3.23
2019-05-25T05:27:35.473Z,2.50
2019-05-25T05:30:04.977Z,2.57
2019-05-25T05:32:33.776Z,2.70
2019-05-25T05:35:02.536Z,3.33
2019-05-25T05:37:31.471Z,2.10
2019-05-25T05:40:00.320Z,3.87
2019-05-25T05:42:29.193Z,2.90
2019-05-25T05:44:58.199Z,3.20
2019-05-25T05:47:27.173Z,3.47
2019-05-25T05:49:55.972Z,3.53
2019-05-25T05:52:44.102Z,2.20
2019-05-25T05:55:12.999Z,2.13
2019-05-25T05:57:41.784Z,2.90
2019-05-25T06:00:10.903Z,2.47
2019-05-25T06:02:59.068Z,2.00
2019-05-25T06:05:27.919Z,3.60
2019-05-25T06:07:59.112Z,2.60
2019-05-25T06:10:29.023Z,3.73
2019-05-25T06:12:57.811Z,2.30
2019-05-25T06:15:26.689Z,1.90
2019-05-25T06:17:55.759Z,2.00
2019-05-25T06:20:24.635Z,3.03
2019-05-25T06:22:55.006Z,3.00
2019-05-25T06:25:23.858Z,3.10
2019-05-25T06:27:52.976Z,3.90
2019-05-25T06:30:22.839Z,7.03
2019-05-25T06:32:51.938Z,8.13
2019-05-25T06:35:21.474Z,6.40
2019-05-25T06:37:50.359Z,7.03
2019-05-25T06:40:19.513Z,12.53
2019-05-25T06:42:48.287Z,8.20
2019-05-25T06:45:17.616Z,4.13
2019-05-25T06:47:47.015Z,6.57
2019-05-25T06:50:16.283Z,5.13
2019-05-25T06:52:45.227Z,8.63
2019-05-25T06:55:14.102Z,6.43
2019-05-25T06:57:43.938Z,5.97
2019-05-25T07:00:14.098Z,4.93
2019-05-25T07:02:43.026Z,7.37
2019-05-25T07:05:12.507Z,8.40
2019-05-25T07:07:41.405Z,7.67
2019-05-25T07:10:10.929Z,7.80
2019-05-25T07:12:39.777Z,8.60
2019-05-25T07:15:08.757Z,4.87
2019-05-25T07:17:37.568Z,4.63
2019-05-25T07:20:25.708Z,6.27
2019-05-25T07:22:54.944Z,6.17
2019-05-25T07:25:23.828Z,4.33
2019-05-25T07:27:59.881Z,6.13
2019-05-25T07:30:23.309Z,5.07
2019-05-25T07:32:52.862Z,4.87
2019-05-25T07:35:29.187Z,5.20
2019-05-25T07:38:04.375Z,7.40
2019-05-25T07:40:33.288Z,5.63
2019-05-25T07:43:02.089Z,4.57
2019-05-25T07:45:31.243Z,4.37
2019-05-25T07:48:02.689Z,5.30
2019-05-25T07:50:33.791Z,4.50
2019-05-25T07:53:03.018Z,3.40
2019-05-25T07:55:31.958Z,3.90
2019-05-25T07:58:15.762Z,5.83
2019-05-25T08:00:32.862Z,6.00
2019-05-25T08:03:03.204Z,4.97
2019-05-25T08:05:37.398Z,7.97
2019-05-25T08:08:07.079Z,4.50
2019-05-25T08:10:35.946Z,5.60
2019-05-25T08:13:04.839Z,6.03
2019-05-25T08:15:36.061Z,8.00
2019-05-25T08:18:05.014Z,15.07
2019-05-25T08:20:33.796Z,11.23
2019-05-25T08:23:03.643Z,8.83
2019-05-25T08:25:32.558Z,7.97
2019-05-25T08:28:33.400Z,12.70
2019-05-25T08:31:02.312Z,9.77
2019-05-25T08:33:31.107Z,9.60
2019-05-25T08:35:59.961Z,9.57
2019-05-25T08:38:28.918Z,11.57
2019-05-25T08:40:57.762Z,10.07
2019-05-25T08:43:26.756Z,10.37
2019-05-25T08:45:55.631Z,8.37
2019-05-25T08:48:24.471Z,13.67
2019-05-25T08:50:55.607Z,13.93
2019-05-25T08:53:39.910Z,9.40
2019-05-25T08:55:55.398Z,9.93
2019-05-25T08:58:24.220Z,13.23
2019-05-25T09:00:54.302Z,14.17
2019-05-25T09:03:23.224Z,17.27
2019-05-25T09:05:52.165Z,16.43
2019-05-25T09:08:20.971Z,12.97
2019-05-25T09:10:49.795Z,14.03
2019-05-25T09:13:37.877Z,16.63
2019-05-25T09:16:06.854Z,17.50
2019-05-25T09:18:35.970Z,16.43
2019-05-25T09:21:04.864Z,17.60
2019-05-25T09:23:33.836Z,19.63
2019-05-25T09:26:02.952Z,19.33
2019-05-25T09:28:31.784Z,18.80
2019-05-25T09:31:00.679Z,20.47
2019-05-25T09:33:29.929Z,19.60
2019-05-25T09:35:58.910Z,19.47
2019-05-25T09:38:27.722Z,24.30
2019-05-25T09:40:56.642Z,22.13
2019-05-25T09:43:25.576Z,26.03
2019-05-25T09:45:54.484Z,29.77
2019-05-25T09:48:23.414Z,27.77
2019-05-25T09:50:52.262Z,27.93
2019-05-25T09:53:21.141Z,32.10
2019-05-25T09:55:50.108Z,33.63
2019-05-25T09:58:19.062Z,30.63
2019-05-25T10:00:48.040Z,30.63
2019-05-25T10:03:16.862Z,30.73
2019-05-25T10:05:45.760Z,31.07
2019-05-25T10:08:14.906Z,32.33
2019-05-25T10:10:44.172Z,31.93
2019-05-25T10:13:13.055Z,33.40
2019-05-25T10:15:41.977Z,32.47
2019-05-25T10:18:10.864Z,36.03
2019-05-25T10:20:39.655Z,36.57
2019-05-25T10:23:08.467Z,39.90
2019-05-25T10:25:37.324Z,37.73
2019-05-25T10:28:06.263Z,37.80
2019-05-25T10:30:35.072Z,39.93
2019-05-25T10:33:04.479Z,41.13
2019-05-25T10:35:33.288Z,39.80
2019-05-25T10:38:02.208Z,40.57
2019-05-25T10:40:31.295Z,42.00
2019-05-25T10:43:00.285Z,43.03
2019-05-25T10:45:29.107Z,43.10
2019-05-25T10:48:04.333Z,43.60
2019-05-25T10:50:33.203Z,45.80
2019-05-25T10:53:02.152Z,43.77
2019-05-25T10:55:31.095Z,44.70
2019-05-25T10:58:00.166Z,45.07
2019-05-25T11:00:29.038Z,43.93
2019-05-25T11:02:58.116Z,45.27
2019-05-25T11:05:27.041Z,46.57
2019-05-25T11:07:55.952Z,50.20
2019-05-25T11:10:24.910Z,49.97
2019-05-25T11:12:55.365Z,50.40
2019-05-25T11:15:24.275Z,52.07
2019-05-25T11:17:53.201Z,50.27
2019-05-25T11:20:22.048Z,51.20
2019-05-25T11:22:52.560Z,52.07
2019-05-25T11:25:21.435Z,52.10
2019-05-25T11:27:50.451Z,53.30
2019-05-25T11:30:19.958Z,50.73
2019-05-25T11:32:49.167Z,50.73
2019-05-25T11:35:18.013Z,52.77
2019-05-25T11:37:46.937Z,51.87
2019-05-25T11:40:15.946Z,53.00
2019-05-25T11:43:04.087Z,50.73
2019-05-25T11:45:33.053Z,51.20
2019-05-25T11:48:01.819Z,50.50
2019-05-25T11:50:30.817Z,50.57
2019-05-25T11:52:59.749Z,52.67
2019-05-25T11:55:28.598Z,52.63
2019-05-25T11:57:57.446Z,51.33
2019-05-25T12:00:26.315Z,51.13
2019-05-25T12:02:55.368Z,50.97
2019-05-25T12:05:24.268Z,51.13
2019-05-25T12:07:53.180Z,49.90
2019-05-25T12:10:23.015Z,50.60
2019-05-25T12:12:52.017Z,51.40
2019-05-25T12:15:21.479Z,48.67
2019-05-25T12:17:50.313Z,49.00
2019-05-25T12:20:19.193Z,49.80
2019-05-25T12:22:48.058Z,48.90
2019-05-25T12:25:16.886Z,49.43
2019-05-25T12:27:49.086Z,47.93
2019-05-25T12:30:16.398Z,46.10
2019-05-25T12:32:45.215Z,47.43
2019-05-25T12:35:14.144Z,47.10
2019-05-25T12:37:43.021Z,46.33
2019-05-25T12:40:12.132Z,46.40
2019-05-25T12:42:40.975Z,45.70
2019-05-25T12:45:09.840Z,42.60
2019-05-25T12:47:38.744Z,43.97
2019-05-25T12:50:07.625Z,42.93
2019-05-25T12:52:36.611Z,40.87
2019-05-25T12:55:05.689Z,39.90
2019-05-25T12:57:34.754Z,41.03
2019-05-25T13:00:14.885Z,39.63
2019-05-25T13:02:34.830Z,37.37
2019-05-25T13:05:04.081Z,37.77
2019-05-25T13:07:33.163Z,35.60
2019-05-25T13:10:02.169Z,35.50
2019-05-25T13:12:31.127Z,34.53
2019-05-25T13:15:00.024Z,33.07
2019-05-25T13:17:28.872Z,33.80
2019-05-25T13:19:57.691Z,31.70
2019-05-25T13:22:26.577Z,30.87
2019-05-25T13:24:55.720Z,30.37
2019-05-25T13:27:24.596Z,30.33
2019-05-25T13:29:53.665Z,27.63
2019-05-25T13:32:22.451Z,27.83
2019-05-25T13:34:51.287Z,26.37
2019-05-25T13:37:20.099Z,27.13
2019-05-25T13:39:48.913Z,24.63
2019-05-25T13:42:17.737Z,23.73
2019-05-25T13:44:48.942Z,25.30
2019-05-25T13:47:17.839Z,22.90
2019-05-25T13:49:46.652Z,23.90
2019-05-25T13:52:15.605Z,22.80
2019-05-25T13:54:44.441Z,23.30
2019-05-25T13:57:13.284Z,23.30
2019-05-25T13:59:42.298Z,22.53
2019-05-25T14:02:11.184Z,21.77
2019-05-25T14:04:40.279Z,22.40
2019-05-25T14:07:09.255Z,21.97
2019-05-25T14:09:39.356Z,21.13
2019-05-25T14:12:08.329Z,20.17
2019-05-25T14:14:37.327Z,20.90
2019-05-25T14:17:06.162Z,20.40
2019-05-25T14:19:35.021Z,19.13
2019-05-25T14:22:04.115Z,19.50
2019-05-25T14:24:33.004Z,19.50
2019-05-25T14:27:01.794Z,17.97
2019-05-25T14:29:30.666Z,18.70
2019-05-25T14:31:59.497Z,18.13
2019-05-25T14:34:28.298Z,18.80
2019-05-25T14:36:57.126Z,17.67
2019-05-25T14:39:25.984Z,17.53
2019-05-25T14:41:54.781Z,17.07
2019-05-25T14:44:23.600Z,16.67
2019-05-25T14:46:52.443Z,16.43
2019-05-25T14:49:21.302Z,14.53
2019-05-25T14:51:50.255Z,15.67
2019-05-25T14:54:19.102Z,15.33
2019-05-25T14:56:47.967Z,14.87
2019-05-25T14:59:16.798Z,15.30
2019-05-25T15:02:01.436Z,15.43
2019-05-25T15:04:16.238Z,18.17
2019-05-25T15:06:45.258Z,16.57
2019-05-25T15:09:14.179Z,15.07
2019-05-25T15:11:43.051Z,19.30
2019-05-25T15:14:12.355Z,21.20
2019-05-25T15:16:41.290Z,25.20
2019-05-25T15:19:10.165Z,13.97
2019-05-25T15:21:39.129Z,14.03
2019-05-25T15:24:08.197Z,14.60
2019-05-25T15:26:37.119Z,12.10
2019-05-25T15:29:05.967Z,17.47
2019-05-25T15:31:34.758Z,15.83
2019-05-25T15:34:03.690Z,18.53
2019-05-25T15:36:32.630Z,15.37
2019-05-25T15:39:01.676Z,14.87
2019-05-25T15:41:30.583Z,10.67
2019-05-25T15:43:59.371Z,13.60
2019-05-25T15:46:28.539Z,13.03
2019-05-25T15:48:57.410Z,13.33
2019-05-25T15:51:26.225Z,17.33
2019-05-25T15:53:55.251Z,15.37
2019-05-25T15:56:24.124Z,11.43
2019-05-25T15:58:52.988Z,11.37
2019-05-25T16:01:22.154Z,13.83
2019-05-25T16:03:51.080Z,12.07
2019-05-25T16:06:19.879Z,13.83
2019-05-25T16:08:48.772Z,14.37
2019-05-25T16:11:17.613Z,12.30
2019-05-25T16:13:46.419Z,8.43
2019-05-25T16:16:15.383Z,13.07
2019-05-25T16:18:44.223Z,17.20
2019-05-25T16:21:13.271Z,8.80
2019-05-25T16:23:48.370Z,8.50
2019-05-25T16:26:21.514Z,6.93
2019-05-25T16:28:50.440Z,6.97
2019-05-25T16:31:20.803Z,7.83
2019-05-25T16:33:49.743Z,6.27
2019-05-25T16:36:18.563Z,8.90
2019-05-25T16:38:47.715Z,8.83
2019-05-25T16:41:16.688Z,8.57
2019-05-25T16:43:45.660Z,7.97
2019-05-25T16:46:14.511Z,7.87
2019-05-25T16:48:49.517Z,7.80
2019-05-25T16:51:26.913Z,7.53
2019-05-25T16:54:15.099Z,6.90
2019-05-25T16:56:43.959Z,16.10
2019-05-25T16:59:12.815Z,9.80
2019-05-25T17:01:48.251Z,8.70
2019-05-25T17:04:12.331Z,9.97
2019-05-25T17:06:43.532Z,10.30
2019-05-25T17:09:12.347Z,13.43
2019-05-25T17:11:41.260Z,10.27
2019-05-25T17:14:10.091Z,10.70
2019-05-25T17:16:40.794Z,9.20
2019-05-25T17:19:09.615Z,11.07
2019-05-25T17:21:38.522Z,13.90
2019-05-25T17:24:07.387Z,10.27
2019-05-25T17:26:36.271Z,12.47
2019-05-25T17:29:05.128Z,10.33
2019-05-25T17:31:33.950Z,9.17
2019-05-25T17:34:02.802Z,15.70
2019-05-25T17:36:31.590Z,9.10
2019-05-25T17:39:00.443Z,11.80
2019-05-25T17:41:29.264Z,11.00
2019-05-25T17:43:58.159Z,14.37
2019-05-25T17:46:26.990Z,9.97
2019-05-25T17:48:55.855Z,15.53
2019-05-25T17:51:24.731Z,9.80
2019-05-25T17:53:53.592Z,14.40
2019-05-25T17:56:22.440Z,9.50
2019-05-25T17:58:52.835Z,14.43
2019-05-25T18:01:21.685Z,10.07
2019-05-25T18:04:05.433Z,12.47
2019-05-25T18:06:40.429Z,13.97
2019-05-25T18:09:28.569Z,11.53
2019-05-25T18:11:57.389Z,12.43
2019-05-25T18:14:26.195Z,13.37
2019-05-25T18:16:55.124Z,11.50
2019-05-25T18:19:23.985Z,16.13
2019-05-25T18:21:52.778Z,13.47
2019-05-25T18:24:21.688Z,13.40
2019-05-25T18:26:50.518Z,13.17
2019-05-25T18:29:19.327Z,13.90
2019-05-25T18:31:48.157Z,13.30
2019-05-25T18:34:22.097Z,14.83
2019-05-25T18:36:47.679Z,14.43
2019-05-25T18:39:16.608Z,13.57
2019-05-25T18:41:45.433Z,13.70
2019-05-25T18:44:14.224Z,16.40
2019-05-25T18:46:43.046Z,15.43
2019-05-25T18:49:11.843Z,16.07
2019-05-25T18:51:40.666Z,14.83
2019-05-25T18:54:09.611Z,15.33
2019-05-25T18:56:38.459Z,15.77
2019-05-25T18:59:08.347Z,14.60
2019-05-25T19:01:37.216Z,15.63
2019-05-25T19:04:06.097Z,14.97
2019-05-25T19:06:34.985Z,15.63
2019-05-25T19:09:04.497Z,15.53
2019-05-25T19:11:36.140Z,16.63
2019-05-25T19:14:24.399Z,15.23
2019-05-25T19:16:55.276Z,17.63
2019-05-25T19:19:24.152Z,16.00
2019-05-25T19:21:52.978Z,15.23
2019-05-25T19:24:21.870Z,15.80
2019-05-25T19:26:50.671Z,16.23
2019-05-25T19:29:20.553Z,18.33
2019-05-25T19:31:49.481Z,17.00
2019-05-25T19:34:18.300Z,19.67
2019-05-25T19:36:47.197Z,18.17
2019-05-25T19:39:16.060Z,19.27
2019-05-25T19:41:46.369Z,19.50
2019-05-25T19:44:15.174Z,20.50
2019-05-25T19:46:43.984Z,20.17
2019-05-25T19:49:13.049Z,19.87
2019-05-25T19:51:41.844Z,22.83
2019-05-25T19:54:10.647Z,22.23
2019-05-25T19:56:39.540Z,23.70
2019-05-25T19:59:08.397Z,23.30
2019-05-25T20:01:37.262Z,23.90
2019-05-25T20:04:06.122Z,25.50
2019-05-25T20:06:34.949Z,27.93
2019-05-25T20:09:05.202Z,27.53
2019-05-25T20:11:34.124Z,28.50
2019-05-25T20:14:03.208Z,31.90
2019-05-25T20:16:32.286Z,31.67
2019-05-25T20:19:01.127Z,30.20
2019-05-25T20:21:29.967Z,31.87
2019-05-25T20:23:58.855Z,33.17
2019-05-25T20:26:27.685Z,33.83
2019-05-25T20:28:56.625Z,34.63
2019-05-25T20:31:25.544Z,35.87
2019-05-25T20:33:54.421Z,36.17
2019-05-25T20:36:23.335Z,36.33
2019-05-25T20:38:52.165Z,39.70
2019-05-25T20:41:20.978Z,39.90
2019-05-25T20:43:49.988Z,39.57
2019-05-25T20:46:18.900Z,40.13
2019-05-25T20:48:47.859Z,40.13
2019-05-25T20:51:17.747Z,38.93
2019-05-25T20:53:46.580Z,39.87
2019-05-25T20:56:15.386Z,39.23
2019-05-25T20:58:44.372Z,39.10
2019-05-25T21:01:13.372Z,39.83
2019-05-25T21:03:42.188Z,40.00
2019-05-25T21:06:11.178Z,39.67
2019-05-25T21:08:40.015Z,41.07
2019-05-25T21:11:08.887Z,41.80
2019-05-25T21:13:37.736Z,38.63
2019-05-25T21:16:06.808Z,40.63
2019-05-25T21:18:35.642Z,38.43
2019-05-25T21:21:04.624Z,39.67
2019-05-25T21:23:33.463Z,39.03
2019-05-25T21:26:03.340Z,38.87
2019-05-25T21:28:32.247Z,39.57
2019-05-25T21:31:01.162Z,38.60
2019-05-25T21:33:32.575Z,39.17
2019-05-25T21:36:08.314Z,38.33
2019-05-25T21:38:31.936Z,36.57
2019-05-25T21:41:00.735Z,36.87
2019-05-25T21:43:29.537Z,38.03
2019-05-25T21:45:58.528Z,36.50
2019-05-25T21:48:27.450Z,35.70
2019-05-25T21:50:56.344Z,35.33
2019-05-25T21:53:25.422Z,35.17
2019-05-25T21:55:55.361Z,36.20
2019-05-25T21:58:24.314Z,36.00
2019-05-25T22:00:53.263Z,35.70
2019-05-25T22:03:22.071Z,35.17
2019-05-25T22:05:50.957Z,34.50
2019-05-25T22:08:19.880Z,34.47
2019-05-25T22:10:48.727Z,35.40
2019-05-25T22:13:27.957Z,34.77
2019-05-25T22:15:49.403Z,34.13
2019-05-25T22:18:18.285Z,33.70
2019-05-25T22:20:47.751Z,33.97
2019-05-25T22:23:16.668Z,33.67
2019-05-25T22:25:45.562Z,34.57
2019-05-25T22:28:14.429Z,33.93
2019-05-25T22:30:43.373Z,33.53
2019-05-25T22:33:12.237Z,33.33
2019-05-25T22:35:41.115Z,31.03
2019-05-25T22:38:09.976Z,31.97
2019-05-25T22:40:38.876Z,32.90
2019-05-25T22:43:07.793Z,32.10
2019-05-25T22:45:36.594Z,32.83
2019-05-25T22:48:05.403Z,32.77
2019-05-25T22:50:34.291Z,33.20
2019-05-25T22:53:03.202Z,33.30
2019-05-25T22:55:32.289Z,32.93
2019-05-25T22:58:01.270Z,32.43
2019-05-25T23:00:31.811Z,33.60
2019-05-25T23:03:00.688Z,35.43
2019-05-25T23:05:29.650Z,35.03
2019-05-25T23:07:58.580Z,36.40
2019-05-25T23:10:27.543Z,35.73
2019-05-25T23:12:56.405Z,31.53
2019-05-25T23:15:29.082Z,32.40
2019-05-25T23:17:58.174Z,33.10
2019-05-25T23:20:32.019Z,33.63
2019-05-25T23:23:03.245Z,32.83
2019-05-25T23:25:32.941Z,33.93
2019-05-25T23:28:03.930Z,32.60
2019-05-25T23:30:33.068Z,31.77
2019-05-25T23:33:02.432Z,31.97
2019-05-25T23:35:32.222Z,33.27
2019-05-25T23:38:03.596Z,31.93
2019-05-25T23:40:32.963Z,31.97
2019-05-25T23:43:02.917Z,35.80
2019-05-25T23:45:31.924Z,35.60
2019-05-25T23:48:00.754Z,33.93
2019-05-25T23:50:30.085Z,33.07
2019-05-25T23:53:00.181Z,33.57
2019-05-25T23:55:29.194Z,33.67
2019-05-25T23:57:58.213Z,33.87
